createdAt,value
2022-08-20T00:01:17.944Z,96593.88
2022-08-20T00:03:53.193Z,96590.69
2022-08-20T00:06:24.627Z,96599.22
2022-08-20T00:08:53.882Z,96593.38
2022-08-20T00:11:25.784Z,96589.56
2022-08-20T00:13:58.622Z,96587.06
2022-08-20T00:16:32.652Z,96596.13
2022-08-20T00:19:00.940Z,96591.31
2022-08-20T00:21:29.394Z,96594.16
2022-08-20T00:24:00.878Z,96592.50
2022-08-20T00:26:28.971Z,96591.00
2022-08-20T00:28:56.870Z,96582.47
2022-08-20T00:31:25.390Z,96579.44
2022-08-20T00:33:53.522Z,96583.13
2022-08-20T00:36:22.630Z,96582.97
2022-08-20T00:39:02.668Z,96591.34
2022-08-20T00:41:32.029Z,96586.84
2022-08-20T00:44:09.279Z,96578.59
2022-08-20T00:46:37.474Z,96589.69
2022-08-20T00:49:08.272Z,96592.81
2022-08-20T00:51:39.551Z,96589.84
2022-08-20T00:54:12.289Z,96595.88
2022-08-20T00:56:43.782Z,96592.53
2022-08-20T00:59:15.618Z,96597.06
2022-08-20T01:01:55.385Z,96604.44
2022-08-20T01:04:26.393Z,96604.94
2022-08-20T01:06:54.819Z,96610.63
2022-08-20T01:09:49.946Z,96603.63
2022-08-20T01:12:15.268Z,96602.78
2022-08-20T01:14:46.276Z,96609.81
2022-08-20T01:17:18.596Z,96598.09
2022-08-20T01:19:51.202Z,96597.88
2022-08-20T01:22:42.513Z,96602.59
2022-08-20T01:25:18.050Z,96613.63
2022-08-20T01:27:53.227Z,96616.13
2022-08-20T01:30:29.912Z,96613.81
2022-08-20T01:32:57.915Z,96616.31
2022-08-20T01:35:27.254Z,96619.63
2022-08-20T01:37:55.765Z,96621.47
2022-08-20T01:40:36.894Z,96620.13
2022-08-20T01:43:09.669Z,96628.34
2022-08-20T01:45:40.195Z,96627.34
2022-08-20T01:48:08.379Z,96625.31
2022-08-20T01:50:41.236Z,96618.94
2022-08-20T01:53:18.196Z,96621.25
2022-08-20T01:55:46.355Z,96623.25
2022-08-20T01:58:15.710Z,96629.00
2022-08-20T02:00:43.943Z,96629.66
2022-08-20T02:03:11.857Z,96630.69
2022-08-20T02:05:39.839Z,96635.00
2022-08-20T02:08:07.759Z,96630.47
2022-08-20T02:10:36.950Z,96631.31
2022-08-20T02:13:07.600Z,96637.31
2022-08-20T02:15:39.813Z,96626.44
2022-08-20T02:18:14.832Z,96626.59
2022-08-20T02:20:44.413Z,96626.28
2022-08-20T02:23:13.115Z,96627.94
2022-08-20T02:25:44.715Z,96620.56
2022-08-20T02:28:19.343Z,96625.91
2022-08-20T02:30:52.423Z,96625.53
2022-08-20T02:33:24.246Z,96632.94
2022-08-20T02:35:56.905Z,96628.88
2022-08-20T02:38:25.447Z,96630.25
2022-08-20T02:40:53.670Z,96629.59
2022-08-20T02:43:21.596Z,96630.91
2022-08-20T02:45:51.688Z,96629.59
2022-08-20T02:48:22.938Z,96630.25
2022-08-20T02:50:53.927Z,96628.75
2022-08-20T02:53:22.774Z,96626.91
2022-08-20T02:55:51.071Z,96638.00
2022-08-20T02:58:19.738Z,96632.16
2022-08-20T03:00:48.034Z,96634.00
2022-08-20T03:03:22.512Z,96623.25
2022-08-20T03:05:52.384Z,96624.00
2022-08-20T03:08:20.436Z,96619.47
2022-08-20T03:10:49.373Z,96616.63
2022-08-20T03:13:17.799Z,96617.31
2022-08-20T03:15:47.683Z,96620.16
2022-08-20T03:18:18.767Z,96617.47
2022-08-20T03:20:52.088Z,96621.88
2022-08-20T03:23:22.048Z,96617.53
2022-08-20T03:25:50.765Z,96617.53
2022-08-20T03:28:19.859Z,96620.38
2022-08-20T03:30:48.171Z,96620.59
2022-08-20T03:33:17.458Z,96615.38
2022-08-20T03:35:45.386Z,96624.44
2022-08-20T03:38:15.645Z,96617.75
2022-08-20T03:40:43.680Z,96617.41
2022-08-20T03:43:11.639Z,96617.75
2022-08-20T03:45:42.170Z,96623.94
2022-08-20T03:48:12.636Z,96619.41
2022-08-20T03:50:43.052Z,96622.28
2022-08-20T03:53:14.548Z,96621.09
2022-08-20T03:55:45.421Z,96623.13
2022-08-20T03:58:22.241Z,96628.47
2022-08-20T04:01:03.108Z,96633.84
2022-08-20T04:03:31.163Z,96622.81
2022-08-20T04:06:00.687Z,96621.44
2022-08-20T04:08:30.402Z,96621.78
2022-08-20T04:10:59.597Z,96620.81
2022-08-20T04:13:29.482Z,96619.63
2022-08-20T04:15:59.126Z,96624.97
2022-08-20T04:18:27.628Z,96625.59
2022-08-20T04:20:55.836Z,96634.16
2022-08-20T04:23:25.161Z,96631.97
2022-08-20T04:25:53.078Z,96632.28
2022-08-20T04:28:27.056Z,96634.16
2022-08-20T04:30:55.714Z,96638.00
2022-08-20T04:33:33.969Z,96643.19
2022-08-20T04:36:06.178Z,96643.38
2022-08-20T04:38:47.957Z,96652.22
2022-08-20T04:41:22.320Z,96652.22
2022-08-20T04:43:53.002Z,96652.22
2022-08-20T04:46:25.477Z,96656.09
2022-08-20T04:48:53.756Z,96651.41
2022-08-20T04:51:22.727Z,96653.41
2022-08-20T04:53:54.301Z,96655.94
2022-08-20T04:56:24.597Z,96653.91
2022-08-20T04:58:54.021Z,96657.22
2022-08-20T05:01:23.650Z,96653.56
2022-08-20T05:03:54.690Z,96662.44
2022-08-20T05:06:25.016Z,96667.31
2022-08-20T05:08:54.544Z,96669.66
2022-08-20T05:11:32.746Z,96669.31
2022-08-20T05:14:03.038Z,96664.31
2022-08-20T05:16:31.362Z,96662.81
2022-08-20T05:18:59.212Z,96670.56
2022-08-20T05:21:27.106Z,96671.75
2022-08-20T05:23:56.383Z,96666.69
2022-08-20T05:26:27.152Z,96674.75
2022-08-20T05:28:58.362Z,96678.59
2022-08-20T05:31:32.204Z,96675.75
2022-08-20T05:34:01.938Z,96681.94
2022-08-20T05:36:30.016Z,96686.28
2022-08-20T05:38:59.261Z,96684.09
2022-08-20T05:41:30.269Z,96689.31
2022-08-20T05:44:01.720Z,96676.38
2022-08-20T05:46:31.126Z,96677.72
2022-08-20T05:49:00.209Z,96684.72
2022-08-20T05:51:29.107Z,96688.59
2022-08-20T05:53:59.302Z,96683.72
2022-08-20T05:56:31.159Z,96684.22
2022-08-20T05:59:02.775Z,96692.94
2022-08-20T06:01:30.804Z,96688.69
2022-08-20T06:04:16.301Z,96689.00
2022-08-20T06:06:47.073Z,96685.34
2022-08-20T06:09:16.707Z,96678.41
2022-08-20T06:12:01.539Z,96681.59
2022-08-20T06:14:29.535Z,96686.44
2022-08-20T06:17:04.131Z,96685.56
2022-08-20T06:19:33.306Z,96682.22
2022-08-20T06:22:01.319Z,96688.63
2022-08-20T06:24:29.305Z,96685.56
2022-08-20T06:26:58.616Z,96688.91
2022-08-20T06:29:28.536Z,96687.06
2022-08-20T06:31:57.375Z,96695.59
2022-08-20T06:34:28.435Z,96697.09
2022-08-20T06:36:59.763Z,96696.75
2022-08-20T06:39:31.116Z,96697.41
2022-08-20T06:41:59.536Z,96700.56
2022-08-20T06:44:29.054Z,96701.25
2022-08-20T06:47:01.668Z,96695.50
2022-08-20T06:49:29.648Z,96696.84
2022-08-20T06:52:03.704Z,96697.50
2022-08-20T06:54:34.258Z,96699.97
2022-08-20T06:57:02.466Z,96699.63
2022-08-20T06:59:31.854Z,96699.59
2022-08-20T07:01:59.687Z,96702.94
2022-08-20T07:04:28.074Z,96700.53
2022-08-20T07:06:57.660Z,96704.38
2022-08-20T07:09:26.767Z,96705.53
2022-08-20T07:11:54.620Z,96707.19
2022-08-20T07:14:22.599Z,96702.09
2022-08-20T07:16:51.857Z,96710.63
2022-08-20T07:19:19.775Z,96708.91
2022-08-20T07:21:49.345Z,96702.34
2022-08-20T07:24:17.220Z,96709.19
2022-08-20T07:26:45.109Z,96710.34
2022-08-20T07:29:13.061Z,96707.44
2022-08-20T07:31:58.427Z,96719.03
2022-08-20T07:34:27.729Z,96707.13
2022-08-20T07:36:55.630Z,96708.41
2022-08-20T07:39:23.567Z,96716.72
2022-08-20T07:42:03.098Z,96715.38
2022-08-20T07:44:31.397Z,96721.00
2022-08-20T07:47:00.054Z,96726.94
2022-08-20T07:49:29.983Z,96735.09
2022-08-20T07:51:57.909Z,96742.50
2022-08-20T07:54:25.756Z,96734.81
2022-08-20T07:57:02.523Z,96735.38
2022-08-20T07:59:30.711Z,96745.94
2022-08-20T08:01:58.819Z,96737.91
2022-08-20T08:04:26.776Z,96739.00
2022-08-20T08:06:59.967Z,96736.16
2022-08-20T08:09:29.374Z,96728.19
2022-08-20T08:12:00.621Z,96731.06
2022-08-20T08:14:32.364Z,96737.56
2022-08-20T08:17:04.520Z,96730.66
2022-08-20T08:19:38.783Z,96723.91
2022-08-20T08:22:11.503Z,96726.31
2022-08-20T08:24:39.710Z,96721.97
2022-08-20T08:27:08.607Z,96720.75
2022-08-20T08:29:36.983Z,96718.25
2022-08-20T08:32:06.018Z,96717.78
2022-08-20T08:34:35.272Z,96719.06
2022-08-20T08:37:03.810Z,96734.06
2022-08-20T08:39:35.086Z,96721.75
2022-08-20T08:42:05.195Z,96720.44
2022-08-20T08:44:38.605Z,96721.72
2022-08-20T08:47:18.520Z,96726.16
2022-08-20T08:49:48.196Z,96724.69
2022-08-20T08:52:22.274Z,96726.97
2022-08-20T08:54:54.729Z,96733.84
2022-08-20T08:57:24.147Z,96725.59
2022-08-20T09:00:03.608Z,96726.44
2022-08-20T09:02:36.305Z,96728.44
2022-08-20T09:05:13.659Z,96728.16
2022-08-20T09:07:45.583Z,96715.84
2022-08-20T09:10:14.991Z,96723.44
2022-08-20T09:12:57.851Z,96713.41
2022-08-20T09:15:25.758Z,96717.16
2022-08-20T09:17:53.849Z,96719.28
2022-08-20T09:20:26.884Z,96716.53
2022-08-20T09:22:55.678Z,96722.38
2022-08-20T09:25:25.115Z,96723.06
2022-08-20T09:27:53.103Z,96727.25
2022-08-20T09:30:21.134Z,96719.78
2022-08-20T09:32:49.602Z,96721.63
2022-08-20T09:35:17.604Z,96719.22
2022-08-20T09:37:46.907Z,96713.66
2022-08-20T09:40:21.162Z,96713.66
2022-08-20T09:42:51.253Z,96710.78
2022-08-20T09:45:20.196Z,96710.84
2022-08-20T09:47:56.320Z,96708.63
2022-08-20T09:50:25.265Z,96707.53
2022-08-20T09:52:55.221Z,96712.88
2022-08-20T09:55:29.207Z,96713.72
2022-08-20T09:57:59.276Z,96707.53
2022-08-20T10:00:27.141Z,96707.09
2022-08-20T10:02:55.171Z,96717.75
2022-08-20T10:05:23.080Z,96717.75
2022-08-20T10:07:51.111Z,96725.31
2022-08-20T10:10:19.204Z,96725.81
2022-08-20T10:12:49.541Z,96729.91
2022-08-20T10:15:21.098Z,96741.53
2022-08-20T10:17:48.928Z,96738.84
2022-08-20T10:20:18.365Z,96734.22
2022-08-20T10:22:46.647Z,96745.16
2022-08-20T10:25:14.649Z,96743.16
2022-08-20T10:27:42.568Z,96744.53
2022-08-20T10:30:11.679Z,96744.97
2022-08-20T10:32:41.093Z,96750.28
2022-08-20T10:35:09.460Z,96749.53
2022-08-20T10:37:37.403Z,96749.19
2022-08-20T10:40:07.036Z,96747.88
2022-08-20T10:42:37.909Z,96745.94
2022-08-20T10:45:09.288Z,96736.84
2022-08-20T10:47:37.207Z,96729.78
2022-08-20T10:50:09.611Z,96730.97
2022-08-20T10:52:38.137Z,96733.75
2022-08-20T10:55:07.122Z,96727.84
2022-08-20T10:57:35.206Z,96727.44
2022-08-20T11:00:06.116Z,96718.22
2022-08-20T11:02:33.976Z,96725.97
2022-08-20T11:05:01.945Z,96729.97
2022-08-20T11:07:55.527Z,96728.19
2022-08-20T11:10:23.411Z,96728.94
2022-08-20T11:12:51.270Z,96733.47
2022-08-20T11:15:19.275Z,96736.41
2022-08-20T11:17:48.119Z,96736.38
2022-08-20T11:20:18.620Z,96739.03
2022-08-20T11:22:48.608Z,96747.50
2022-08-20T11:25:16.605Z,96745.16
2022-08-20T11:27:47.171Z,96742.38
2022-08-20T11:30:20.028Z,96744.91
2022-08-20T11:32:47.906Z,96744.81
2022-08-20T11:38:05.562Z,96743.69
2022-08-20T11:40:33.510Z,96741.06
2022-08-20T11:43:17.824Z,96739.91
2022-08-20T11:45:48.615Z,96731.81
2022-08-20T11:48:16.861Z,96735.81
2022-08-20T11:50:45.167Z,96737.63
2022-08-20T11:53:14.980Z,96735.66
2022-08-20T11:55:44.488Z,96733.44
2022-08-20T11:58:12.796Z,96735.19
2022-08-20T12:00:40.850Z,96733.50
2022-08-20T12:03:10.240Z,96740.44
2022-08-20T12:05:38.730Z,96746.84
2022-08-20T12:08:08.387Z,96742.75
2022-08-20T12:10:37.959Z,96740.72
2022-08-20T12:13:06.274Z,96732.88
2022-08-20T12:15:34.702Z,96740.19
2022-08-20T12:18:06.508Z,96735.50
2022-08-20T12:20:34.812Z,96736.78
2022-08-20T12:23:02.740Z,96735.19
2022-08-20T12:25:31.055Z,96732.00
2022-08-20T12:28:00.744Z,96737.94
2022-08-20T12:30:29.135Z,96739.09
2022-08-20T12:32:57.074Z,96738.38
2022-08-20T12:35:25.127Z,96740.56
2022-08-20T12:37:53.286Z,96738.28
2022-08-20T12:40:32.000Z,96732.06
2022-08-20T12:43:03.430Z,96724.81
2022-08-20T12:45:32.229Z,96723.84
2022-08-20T12:48:05.579Z,96725.44
2022-08-20T12:50:34.097Z,96723.91
2022-08-20T12:53:02.528Z,96721.53
2022-08-20T12:55:31.131Z,96720.41
2022-08-20T12:58:01.703Z,96716.06
2022-08-20T13:00:33.376Z,96719.66
2022-08-20T13:03:03.339Z,96727.50
2022-08-20T13:05:32.593Z,96730.31
2022-08-20T13:08:00.868Z,96734.84
2022-08-20T13:10:31.275Z,96731.19
2022-08-20T13:12:59.590Z,96725.34
2022-08-20T13:15:27.515Z,96732.59
2022-08-20T13:18:00.107Z,96731.81
2022-08-20T13:20:34.659Z,96721.66
2022-08-20T13:23:03.771Z,96724.97
2022-08-20T13:25:32.204Z,96711.78
2022-08-20T13:28:03.922Z,96710.78
2022-08-20T13:30:32.939Z,96703.59
2022-08-20T13:33:02.337Z,96690.31
2022-08-20T13:35:30.234Z,96704.25
2022-08-20T13:37:58.205Z,96704.03
2022-08-20T13:40:26.754Z,96707.53
2022-08-20T13:42:54.653Z,96706.03
2022-08-20T13:45:22.637Z,96706.22
2022-08-20T13:47:54.059Z,96703.72
2022-08-20T13:50:25.608Z,96705.19
2022-08-20T13:52:53.771Z,96702.69
2022-08-20T13:55:23.999Z,96704.75
2022-08-20T13:57:52.252Z,96702.69
2022-08-20T14:00:31.804Z,96705.44
2022-08-20T14:03:00.472Z,96700.31
2022-08-20T14:05:29.999Z,96699.16
2022-08-20T14:08:05.112Z,96713.72
2022-08-20T14:10:33.099Z,96708.72
2022-08-20T14:13:01.250Z,96703.94
2022-08-20T14:15:29.110Z,96707.25
2022-08-20T14:17:58.652Z,96709.06
2022-08-20T14:20:31.926Z,96701.94
2022-08-20T14:23:01.261Z,96701.94
2022-08-20T14:25:31.617Z,96700.69
2022-08-20T14:28:00.753Z,96698.22
2022-08-20T14:30:30.552Z,96702.16
2022-08-20T14:32:58.631Z,96697.03
2022-08-20T14:35:26.783Z,96692.22
2022-08-20T14:37:56.631Z,96696.44
2022-08-20T14:40:26.810Z,96690.81
2022-08-20T14:42:56.045Z,96684.84
2022-08-20T14:45:24.614Z,96684.25
2022-08-20T14:47:54.457Z,96676.78
2022-08-20T14:50:26.123Z,96673.91
2022-08-20T14:52:54.506Z,96670.81
2022-08-20T14:55:26.899Z,96673.91
2022-08-20T14:57:55.211Z,96670.59
2022-08-20T15:00:25.047Z,96664.00
2022-08-20T15:02:53.452Z,96670.84
2022-08-20T15:05:22.031Z,96666.69
2022-08-20T15:07:54.164Z,96674.34
2022-08-20T15:10:27.103Z,96659.81
2022-08-20T15:12:55.510Z,96663.34
2022-08-20T15:15:24.394Z,96663.38
2022-08-20T15:17:54.945Z,96665.66
2022-08-20T15:20:24.899Z,96653.63
2022-08-20T15:22:52.854Z,96646.19
2022-08-20T15:25:24.312Z,96658.44
2022-08-20T15:27:55.683Z,96658.22
2022-08-20T15:30:30.212Z,96655.75
2022-08-20T15:32:58.657Z,96659.28
2022-08-20T15:35:28.814Z,96651.59
2022-08-20T15:37:59.388Z,96653.84
2022-08-20T15:40:31.145Z,96658.84
2022-08-20T15:43:00.305Z,96656.97
2022-08-20T15:45:28.573Z,96655.69
2022-08-20T15:48:02.671Z,96650.53
2022-08-20T15:50:50.744Z,96652.41
2022-08-20T15:53:25.588Z,96662.78
2022-08-20T15:56:00.661Z,96655.75
2022-08-20T15:58:36.031Z,96660.13
2022-08-20T16:01:24.738Z,96661.16
2022-08-20T16:04:24.984Z,96661.16
2022-08-20T16:06:57.975Z,96667.56
2022-08-20T16:09:43.257Z,96669.44
2022-08-20T16:12:21.047Z,96670.25
2022-08-20T16:14:55.879Z,96677.34
2022-08-20T16:17:31.235Z,96676.28
2022-08-20T16:20:07.172Z,96679.00
2022-08-20T16:22:38.251Z,96678.59
2022-08-20T16:25:07.574Z,96683.13
2022-08-20T16:27:48.374Z,96681.66
2022-08-20T16:30:22.051Z,96683.72
2022-08-20T16:32:59.641Z,96690.38
2022-08-20T16:35:31.746Z,96686.03
2022-08-20T16:38:06.881Z,96690.16
2022-08-20T16:40:41.391Z,96685.81
2022-08-20T16:43:17.522Z,96677.06
2022-08-20T16:45:50.909Z,96683.47
2022-08-20T16:48:20.086Z,96689.28
2022-08-20T16:50:57.590Z,96682.22
2022-08-20T16:53:27.245Z,96687.81
2022-08-20T16:55:57.112Z,96699.19
2022-08-20T16:58:26.898Z,96699.78
2022-08-20T17:01:07.839Z,96697.50
2022-08-20T17:03:40.250Z,96701.44
2022-08-20T17:06:18.145Z,96694.19
2022-08-20T17:08:51.419Z,96697.03
2022-08-20T17:11:26.087Z,96694.94
2022-08-20T17:14:06.849Z,96689.13
2022-08-20T17:16:37.889Z,96686.63
2022-08-20T17:19:12.262Z,96695.94
2022-08-20T17:21:41.210Z,96693.66
2022-08-20T17:24:16.884Z,96695.72
2022-08-20T17:26:47.515Z,96699.00
2022-08-20T17:29:20.321Z,96700.88
2022-08-20T17:31:51.356Z,96700.41
2022-08-20T17:34:22.142Z,96702.25
2022-08-20T17:36:56.207Z,96701.59
2022-08-20T17:39:26.042Z,96700.53
2022-08-20T17:41:58.454Z,96698.25
2022-08-20T17:44:33.567Z,96711.28
2022-08-20T17:47:03.444Z,96706.72
2022-08-20T17:49:35.842Z,96709.16
2022-08-20T17:52:12.746Z,96708.75
2022-08-20T17:54:45.616Z,96712.84
2022-08-20T17:57:17.310Z,96715.94
2022-08-20T18:00:00.738Z,96710.69
2022-08-20T18:02:30.504Z,96715.91
2022-08-20T18:04:58.473Z,96720.41
2022-08-20T18:07:32.198Z,96725.28
2022-08-20T18:10:05.061Z,96725.22
2022-08-20T18:12:41.503Z,96720.41
2022-08-20T18:15:17.350Z,96720.00
2022-08-20T18:18:02.735Z,96733.22
2022-08-20T18:21:00.908Z,96727.75
2022-08-20T18:23:32.916Z,96733.06
2022-08-20T18:26:06.544Z,96736.81
2022-08-20T18:28:38.946Z,96736.72
2022-08-20T18:31:10.371Z,96735.19
2022-08-20T18:33:42.093Z,96735.56
2022-08-20T18:36:13.577Z,96742.34
2022-08-20T18:38:43.230Z,96740.41
2022-08-20T18:41:13.983Z,96740.28
2022-08-20T18:43:43.234Z,96739.91
2022-08-20T18:46:22.854Z,96742.84
2022-08-20T18:48:53.211Z,96750.22
2022-08-20T18:51:24.745Z,96748.81
2022-08-20T18:53:53.048Z,96743.34
2022-08-20T18:56:32.520Z,96743.63
2022-08-20T18:59:04.453Z,96749.28
2022-08-20T19:01:37.450Z,96745.66
2022-08-20T19:04:33.161Z,96747.59
2022-08-20T19:07:04.734Z,96752.19
2022-08-20T19:09:50.880Z,96759.94
2022-08-20T19:12:42.420Z,96759.88
2022-08-20T19:15:17.282Z,96755.38
2022-08-20T19:17:57.257Z,96763.31
2022-08-20T19:20:28.110Z,96771.63
2022-08-20T19:23:02.435Z,96775.72
2022-08-20T19:25:32.747Z,96774.75
2022-08-20T19:28:05.388Z,96779.34
2022-08-20T19:30:38.736Z,96782.25
2022-08-20T19:33:08.804Z,96781.31
2022-08-20T19:35:37.718Z,96780.16
2022-08-20T19:38:08.178Z,96783.16
2022-08-20T19:40:40.106Z,96771.63
2022-08-20T19:43:16.177Z,96773.84
2022-08-20T19:45:47.484Z,96768.81
2022-08-20T19:48:41.437Z,96769.53
2022-08-20T19:51:15.921Z,96764.88
2022-08-20T19:53:46.927Z,96767.91
2022-08-20T19:56:18.659Z,96764.94
2022-08-20T19:58:47.464Z,96762.94
2022-08-20T20:01:19.252Z,96760.31
2022-08-20T20:03:59.655Z,96767.69
2022-08-20T20:06:29.490Z,96766.50
2022-08-20T20:09:01.887Z,96771.22
2022-08-20T20:11:35.231Z,96772.09
2022-08-20T20:14:05.890Z,96774.28
2022-08-20T20:16:34.922Z,96776.66
2022-08-20T20:19:25.203Z,96771.81
2022-08-20T20:22:05.426Z,96773.31
2022-08-20T20:24:43.320Z,96776.81
2022-08-20T20:27:20.847Z,96777.00
2022-08-20T20:29:51.771Z,96772.19
2022-08-20T20:32:22.625Z,96771.66
2022-08-20T20:34:56.259Z,96772.16
2022-08-20T20:37:50.302Z,96773.69
2022-08-20T20:40:25.977Z,96778.06
2022-08-20T20:42:59.606Z,96772.38
2022-08-20T20:45:33.791Z,96770.53
2022-08-20T20:48:09.355Z,96771.38
2022-08-20T20:50:39.587Z,96766.22
2022-08-20T20:53:07.500Z,96772.22
2022-08-20T20:55:37.309Z,96770.72
2022-08-20T20:58:05.604Z,96772.19
2022-08-20T21:00:35.147Z,96762.66
2022-08-20T21:03:04.543Z,96768.50
2022-08-20T21:05:33.545Z,96766.19
2022-08-20T21:08:07.077Z,96769.34
2022-08-20T21:10:38.022Z,96764.50
2022-08-20T21:13:06.582Z,96767.81
2022-08-20T21:15:35.795Z,96764.63
2022-08-20T21:18:05.687Z,96764.09
2022-08-20T21:20:34.126Z,96768.44
2022-08-20T21:23:03.890Z,96766.09
2022-08-20T21:25:34.131Z,96761.25
2022-08-20T21:28:02.020Z,96767.09
2022-08-20T21:30:29.952Z,96768.09
2022-08-20T21:32:57.961Z,96770.44
2022-08-20T21:35:25.955Z,96767.72
2022-08-20T21:37:53.896Z,96765.03
2022-08-20T21:40:23.233Z,96766.06
2022-08-20T21:42:56.607Z,96768.06
2022-08-20T21:45:24.643Z,96770.53
2022-08-20T21:47:57.128Z,96769.84
2022-08-20T21:50:26.673Z,96774.69
2022-08-20T21:52:55.236Z,96768.47
2022-08-20T21:55:30.081Z,96786.34
2022-08-20T21:57:59.447Z,96782.47
2022-08-20T22:00:53.812Z,96781.13
2022-08-20T22:03:23.202Z,96786.97
2022-08-20T22:05:52.261Z,96783.97
2022-08-20T22:08:21.298Z,96785.25
2022-08-20T22:10:56.999Z,96786.91
2022-08-20T22:13:25.803Z,96784.56
2022-08-20T22:15:54.116Z,96786.53
2022-08-20T22:18:21.974Z,96783.50
2022-08-20T22:20:50.299Z,96782.13
2022-08-20T22:23:18.188Z,96781.44
2022-08-20T22:25:46.087Z,96777.41
2022-08-20T22:28:15.371Z,96783.38
2022-08-20T22:30:43.427Z,96780.19
2022-08-20T22:33:14.474Z,96779.03
2022-08-20T22:35:46.108Z,96787.72
2022-08-20T22:38:14.190Z,96782.34
2022-08-20T22:40:42.118Z,96781.66
2022-08-20T22:43:10.014Z,96787.31
2022-08-20T22:45:40.653Z,96784.47
2022-08-20T22:48:09.720Z,96790.66
2022-08-20T22:50:38.782Z,96786.16
2022-08-20T22:53:08.077Z,96789.91
2022-08-20T22:55:36.915Z,96786.56
2022-08-20T22:58:05.414Z,96789.88
2022-08-20T23:00:34.147Z,96795.97
2022-08-20T23:03:04.966Z,96782.63
2022-08-20T23:05:34.866Z,96794.63
2022-08-20T23:08:03.003Z,96786.06
2022-08-20T23:10:33.839Z,96781.88
2022-08-20T23:13:02.096Z,96783.72
2022-08-20T23:15:30.886Z,96787.00
2022-08-20T23:18:06.235Z,96789.97
2022-08-20T23:20:34.162Z,96786.50
2022-08-20T23:23:02.227Z,96788.28
2022-08-20T23:25:30.132Z,96784.41
2022-08-20T23:28:04.031Z,96793.63
2022-08-20T23:30:32.501Z,96790.59
2022-08-20T23:33:01.732Z,96784.94
2022-08-20T23:35:33.040Z,96781.75
2022-08-20T23:38:01.756Z,96784.56
2022-08-20T23:40:30.302Z,96789.38
2022-08-20T23:42:59.030Z,96782.16
2022-08-20T23:45:28.296Z,96771.88
2022-08-20T23:47:56.191Z,96779.78
2022-08-20T23:50:28.908Z,96782.44
2022-08-20T23:52:59.270Z,96782.66
2022-08-20T23:55:27.741Z,96772.84
2022-08-20T23:57:56.129Z,96774.44
